www.cux-wetter.de
Wetterdaten: Mittwoch, 13.06.2012
Datum Zeit Temp. A. Feuchte A. Luftdruck Regen Wind Richtung Richtung Sonnenschein Solar Taupunkt Windchill Windben
13.06.2012 00:00 12,8 C 75 % 1007,5 hPa 0,0 l/m 25,5 km/h (4 Bft) NO 45 0 min 0 W/m 8,5 C 5,5 C 25,5 km/h (4 Bft)
13.06.2012 00:15 12,8 C 75 % 1007,5 hPa 0,0 l/m 21,3 km/h (4 Bft) NO 40 0 min 0 W/m 8,5 C 6,5 C 21,3 km/h (4 Bft)
13.06.2012 00:30 12,8 C 75 % 1007,5 hPa 0,0 l/m 24,1 km/h (4 Bft) NO 35 0 min 0 W/m 8,5 C 5,8 C 24,1 km/h (4 Bft)
13.06.2012 00:45 12,7 C 74 % 1007,5 hPa 0,0 l/m 25,6 km/h (4 Bft) NO 45 0 min 0 W/m 8,2 C 5,4 C 25,6 km/h (4 Bft)
13.06.2012 01:00 12,6 C 75 % 1007,5 hPa 0,0 l/m 21,1 km/h (4 Bft) N-NO 15 0 min 0 W/m 8,3 C 6,3 C 21,1 km/h (4 Bft)
13.06.2012 01:15 12,6 C 74 % 1007,5 hPa 0,0 l/m 19,5 km/h (3 Bft) NO 40 0 min 0 W/m 8,1 C 6,8 C 19,5 km/h (3 Bft)
13.06.2012 01:30 12,6 C 75 % 1007,5 hPa 0,0 l/m 20,3 km/h (4 Bft) NO 35 0 min 0 W/m 8,3 C 6,6 C 20,3 km/h (4 Bft)
13.06.2012 01:45 12,6 C 74 % 1007,5 hPa 0,0 l/m 16,7 km/h (3 Bft) NO 40 0 min 0 W/m 8,1 C 7,7 C 16,7 km/h (3 Bft)
13.06.2012 02:00 12,5 C 74 % 1007,5 hPa 0,0 l/m 19,8 km/h (3 Bft) N-NO 30 0 min 0 W/m 8,0 C 6,6 C 19,8 km/h (3 Bft)
13.06.2012 02:15 12,4 C 73 % 1007,5 hPa 0,0 l/m 16,8 km/h (3 Bft) NO 35 0 min 0 W/m 7,7 C 7,4 C 16,8 km/h (3 Bft)
13.06.2012 02:30 12,4 C 73 % 1007,5 hPa 0,0 l/m 15,9 km/h (3 Bft) N-NO 25 0 min 0 W/m 7,7 C 7,7 C 15,9 km/h (3 Bft)
13.06.2012 02:45 12,4 C 73 % 1007,5 hPa 0,0 l/m 17,6 km/h (3 Bft) NO 55 0 min 0 W/m 7,7 C 7,1 C 17,6 km/h (3 Bft)
13.06.2012 03:00 12,3 C 72 % 1007,5 hPa 0,0 l/m 15,8 km/h (3 Bft) N-NO 30 0 min 0 W/m 7,4 C 7,6 C 15,8 km/h (3 Bft)
13.06.2012 03:15 12,3 C 73 % 1007,5 hPa 0,0 l/m 16,9 km/h (3 Bft) N 360 0 min 0 W/m 7,6 C 7,2 C 16,9 km/h (3 Bft)
13.06.2012 03:30 12,2 C 73 % 1007,5 hPa 0,0 l/m 18,3 km/h (3 Bft) N-NO 30 0 min 0 W/m 7,5 C 6,7 C 18,3 km/h (3 Bft)
13.06.2012 03:45 12,2 C 72 % 1007,5 hPa 0,0 l/m 17,7 km/h (3 Bft) N 5 0 min 0 W/m 7,3 C 6,8 C 17,7 km/h (3 Bft)
13.06.2012 04:00 12,1 C 72 % 1007,5 hPa 0,0 l/m 21,0 km/h (4 Bft) N 350 0 min 0 W/m 7,2 C 5,7 C 21,0 km/h (4 Bft)
13.06.2012 04:15 12,1 C 72 % 1008,5 hPa 0,0 l/m 16,2 km/h (3 Bft) NW 325 0 min 0 W/m 7,2 C 7,2 C 16,2 km/h (3 Bft)
13.06.2012 04:30 12,0 C 73 % 1008,5 hPa 0,0 l/m 17,5 km/h (3 Bft) NW 320 0 min 0 W/m 7,3 C 6,7 C 17,5 km/h (3 Bft)
13.06.2012 04:45 11,8 C 73 % 1008,5 hPa 0,0 l/m 17,0 km/h (3 Bft) N-NW 340 0 min 0 W/m 7,1 C 6,6 C 17,0 km/h (3 Bft)
13.06.2012 05:00 11,8 C 73 % 1008,5 hPa 0,0 l/m 18,2 km/h (3 Bft) N-NW 340 0 min 0 W/m 7,1 C 6,2 C 18,2 km/h (3 Bft)
13.06.2012 05:15 11,8 C 73 % 1008,5 hPa 0,0 l/m 18,5 km/h (3 Bft) N-NW 340 0 min 0 W/m 7,1 C 6,1 C 18,5 km/h (3 Bft)
13.06.2012 05:30 11,7 C 73 % 1008,5 hPa 0,0 l/m 18,0 km/h (3 Bft) N-NW 340 0 min 0 W/m 7,0 C 6,1 C 18,0 km/h (3 Bft)
13.06.2012 05:45 11,6 C 73 % 1008,5 hPa 0,0 l/m 15,5 km/h (3 Bft) N-NW 330 0 min 0 W/m 6,9 C 6,9 C 15,5 km/h (3 Bft)
13.06.2012 06:00 11,6 C 74 % 1008,5 hPa 0,0 l/m 14,8 km/h (3 Bft) N-NW 340 0 min 0 W/m 7,1 C 7,2 C 14,8 km/h (3 Bft)
13.06.2012 06:15 11,6 C 74 % 1008,5 hPa 0,0 l/m 16,8 km/h (3 Bft) NW 325 0 min 0 W/m 7,1 C 6,4 C 16,8 km/h (3 Bft)
13.06.2012 06:30 11,6 C 73 % 1008,5 hPa 0,0 l/m 14,2 km/h (3 Bft) N-NW 345 0 min 0 W/m 6,9 C 7,4 C 14,2 km/h (3 Bft)
13.06.2012 06:45 11,8 C 73 % 1008,5 hPa 0,0 l/m 19,1 km/h (3 Bft) N-NW 330 0 min 0 W/m 7,1 C 5,9 C 19,1 km/h (3 Bft)
13.06.2012 07:00 11,8 C 73 % 1008,5 hPa 0,0 l/m 21,0 km/h (4 Bft) N-NW 335 0 min 0 W/m 7,1 C 5,3 C 21,0 km/h (4 Bft)
13.06.2012 07:15 11,9 C 73 % 1009,5 hPa 0,0 l/m 13,7 km/h (3 Bft) N-NW 335 0 min 0 W/m 7,2 C 8,0 C 13,7 km/h (3 Bft)
13.06.2012 07:30 12,0 C 72 % 1009,5 hPa 0,0 l/m 19,6 km/h (3 Bft) N-NW 330 0 min 0 W/m 7,1 C 6,0 C 19,6 km/h (3 Bft)
13.06.2012 07:45 12,1 C 72 % 1009,5 hPa 0,0 l/m 20,5 km/h (4 Bft) NW 320 0 min 0 W/m 7,2 C 5,9 C 20,5 km/h (4 Bft)
13.06.2012 07:59 12,1 C 71 % 1009,5 hPa 0,0 l/m 20,6 km/h (4 Bft) N-NW 330 0 min 0 W/m 7,0 C 5,8 C 20,6 km/h (4 Bft)
13.06.2012 08:15 12,4 C 70 % 1009,5 hPa 0,0 l/m 18,6 km/h (3 Bft) NW 325 0 min 0 W/m 7,1 C 6,8 C 18,6 km/h (3 Bft)
13.06.2012 08:30 12,6 C 70 % 1009,5 hPa 0,0 l/m 20,5 km/h (4 Bft) NW 315 0 min 0 W/m 7,3 C 6,5 C 20,5 km/h (4 Bft)
13.06.2012 08:45 12,6 C 70 % 1009,5 hPa 0,0 l/m 22,3 km/h (4 Bft) N-NW 340 0 min 0 W/m 7,3 C 6,0 C 22,3 km/h (4 Bft)
13.06.2012 09:00 12,8 C 69 % 1010,5 hPa 0,0 l/m 25,2 km/h (4 Bft) NW 320 0 min 0 W/m 7,3 C 5,6 C 25,2 km/h (4 Bft)
13.06.2012 09:15 13,0 C 69 % 1010,5 hPa 0,0 l/m 21,3 km/h (4 Bft) N-NW 330 0 min 0 W/m 7,4 C 6,8 C 21,3 km/h (4 Bft)
13.06.2012 09:30 13,1 C 68 % 1010,5 hPa 0,0 l/m 21,6 km/h (4 Bft) N-NW 335 0 min 0 W/m 7,3 C 6,9 C 21,6 km/h (4 Bft)
13.06.2012 09:45 13,3 C 68 % 1010,5 hPa 0,0 l/m 24,1 km/h (4 Bft) NW 325 0 min 0 W/m 7,5 C 6,5 C 24,1 km/h (4 Bft)
13.06.2012 10:00 13,7 C 67 % 1010,5 hPa 0,0 l/m 23,2 km/h (4 Bft) N-NW 330 0 min 0 W/m 7,7 C 7,3 C 23,2 km/h (4 Bft)
13.06.2012 10:15 14,0 C 67 % 1010,5 hPa 0,0 l/m 24,4 km/h (4 Bft) NW 320 0 min 0 W/m 8,0 C 7,4 C 24,4 km/h (4 Bft)
13.06.2012 10:30 14,3 C 65 % 1010,5 hPa 0,0 l/m 24,1 km/h (4 Bft) NW 320 0 min 0 W/m 7,8 C 7,9 C 24,1 km/h (4 Bft)
13.06.2012 10:45 14,8 C 65 % 1010,5 hPa 0,0 l/m 23,8 km/h (4 Bft) N-NW 330 0 min 0 W/m 8,3 C 8,6 C 23,8 km/h (4 Bft)
13.06.2012 11:00 15,1 C 65 % 1011,5 hPa 0,0 l/m 21,0 km/h (4 Bft) NW 310 0 min 0 W/m 8,6 C 9,6 C 21,0 km/h (4 Bft)
13.06.2012 11:15 15,8 C 62 % 1010,5 hPa 0,0 l/m 22,5 km/h (4 Bft) NW 315 0 min 0 W/m 8,5 C 10,2 C 22,5 km/h (4 Bft)
13.06.2012 11:30 15,8 C 61 % 1011,5 hPa 0,0 l/m 21,5 km/h (4 Bft) NW 315 0 min 0 W/m 8,3 C 10,4 C 21,5 km/h (4 Bft)
13.06.2012 11:45 15,0 C 65 % 1011,5 hPa 0,0 l/m 20,5 km/h (4 Bft) NW 320 0 min 0 W/m 8,5 C 9,6 C 20,5 km/h (4 Bft)
13.06.2012 12:00 14,8 C 64 % 1011,5 hPa 0,0 l/m 24,0 km/h (4 Bft) NW 325 0 min 0 W/m 8,1 C 8,5 C 24,0 km/h (4 Bft)
13.06.2012 12:15 16,2 C 61 % 1011,5 hPa 0,0 l/m 23,6 km/h (4 Bft) N-NW 330 0 min 0 W/m 8,7 C 10,5 C 23,6 km/h (4 Bft)
13.06.2012 12:30 16,4 C 60 % 1011,5 hPa 0,0 l/m 25,6 km/h (4 Bft) W-NW 300 0 min 0 W/m 8,6 C 10,4 C 25,6 km/h (4 Bft)
13.06.2012 12:45 17,0 C 59 % 1011,5 hPa 0,0 l/m 28,5 km/h (5 Bft) NW 310 0 min 0 W/m 8,9 C 10,7 C 28,5 km/h (5 Bft)
13.06.2012 13:00 17,2 C 58 % 1011,5 hPa 0,0 l/m 25,0 km/h (4 Bft) NW 325 0 min 0 W/m 8,9 C 11,6 C 25,0 km/h (4 Bft)
13.06.2012 13:15 17,6 C 58 % 1011,5 hPa 0,0 l/m 24,7 km/h (4 Bft) NW 315 0 min 0 W/m 9,2 C 12,2 C 24,7 km/h (4 Bft)
13.06.2012 13:30 17,6 C 57 % 1011,5 hPa 0,0 l/m 23,5 km/h (4 Bft) NW 315 0 min 0 W/m 9,0 C 12,4 C 23,5 km/h (4 Bft)
13.06.2012 13:45 17,7 C 56 % 1012,5 hPa 0,0 l/m 23,5 km/h (4 Bft) NW 315 0 min 0 W/m 8,8 C 12,5 C 23,5 km/h (4 Bft)
13.06.2012 14:00 17,9 C 57 % 1012,5 hPa 0,0 l/m 23,5 km/h (4 Bft) NW 315 0 min 0 W/m 9,3 C 12,8 C 23,5 km/h (4 Bft)
13.06.2012 14:15 17,8 C 57 % 1012,5 hPa 0,0 l/m 24,1 km/h (4 Bft) N-NW 340 0 min 0 W/m 9,2 C 12,6 C 24,1 km/h (4 Bft)
13.06.2012 14:30 18,0 C 58 % 1012,5 hPa 0,0 l/m 28,5 km/h (5 Bft) NW 325 0 min 0 W/m 9,6 C 12,1 C 28,5 km/h (5 Bft)
13.06.2012 14:45 18,1 C 57 % 1012,5 hPa 0,0 l/m 28,5 km/h (5 Bft) NW 325 0 min 0 W/m 9,4 C 12,3 C 28,5 km/h (5 Bft)
13.06.2012 15:00 17,5 C 58 % 1012,5 hPa 0,0 l/m 22,8 km/h (4 Bft) N-NW 340 0 min 0 W/m 9,1 C 12,4 C 22,8 km/h (4 Bft)
13.06.2012 15:15 17,6 C 56 % 1012,5 hPa 0,0 l/m 21,0 km/h (4 Bft) NW 325 0 min 0 W/m 8,7 C 12,9 C 21,0 km/h (4 Bft)
13.06.2012 15:30 17,4 C 58 % 1012,5 hPa 0,0 l/m 24,3 km/h (4 Bft) NW 325 0 min 0 W/m 9,1 C 12,0 C 24,3 km/h (4 Bft)
13.06.2012 15:45 17,6 C 58 % 1012,5 hPa 0,0 l/m 21,9 km/h (4 Bft) N-NW 345 0 min 0 W/m 9,2 C 12,7 C 21,9 km/h (4 Bft)
13.06.2012 16:00 17,2 C 58 % 1012,5 hPa 0,0 l/m 20,2 km/h (4 Bft) N-NW 335 0 min 0 W/m 8,9 C 12,5 C 20,2 km/h (4 Bft)
13.06.2012 16:15 17,1 C 59 % 1012,5 hPa 0,0 l/m 24,6 km/h (4 Bft) N-NW 335 0 min 0 W/m 9,0 C 11,5 C 24,6 km/h (4 Bft)
13.06.2012 16:30 17,3 C 59 % 1013,5 hPa 0,0 l/m 24,1 km/h (4 Bft) N-NW 330 0 min 0 W/m 9,2 C 11,9 C 24,1 km/h (4 Bft)
13.06.2012 16:45 17,1 C 59 % 1013,5 hPa 0,0 l/m 25,1 km/h (4 Bft) N-NW 330 0 min 0 W/m 9,0 C 11,4 C 25,1 km/h (4 Bft)
13.06.2012 17:00 17,1 C 59 % 1013,5 hPa 0,0 l/m 26,5 km/h (4 Bft) N-NW 335 0 min 0 W/m 9,0 C 11,2 C 26,5 km/h (4 Bft)
13.06.2012 17:15 17,0 C 59 % 1013,5 hPa 0,0 l/m 24,3 km/h (4 Bft) NW 325 0 min 0 W/m 8,9 C 11,4 C 24,3 km/h (4 Bft)
13.06.2012 17:30 16,8 C 59 % 1013,5 hPa 0,0 l/m 24,1 km/h (4 Bft) N-NW 340 0 min 0 W/m 8,7 C 11,2 C 24,1 km/h (4 Bft)
13.06.2012 17:45 16,6 C 60 % 1013,5 hPa 0,0 l/m 22,6 km/h (4 Bft) N-NW 335 0 min 0 W/m 8,8 C 11,2 C 22,6 km/h (4 Bft)
13.06.2012 18:00 16,4 C 60 % 1013,5 hPa 0,0 l/m 23,3 km/h (4 Bft) N-NW 340 0 min 0 W/m 8,6 C 10,8 C 23,3 km/h (4 Bft)
13.06.2012 18:15 15,6 C 62 % 1013,5 hPa 0,0 l/m 24,5 km/h (4 Bft) N 355 0 min 0 W/m 8,3 C 9,5 C 24,5 km/h (4 Bft)
13.06.2012 18:30 15,3 C 63 % 1013,5 hPa 0,0 l/m 22,9 km/h (4 Bft) N-NW 330 0 min 0 W/m 8,3 C 9,5 C 22,9 km/h (4 Bft)
13.06.2012 18:45 15,3 C 63 % 1013,5 hPa 0,0 l/m 23,3 km/h (4 Bft) NW 315 0 min 0 W/m 8,3 C 9,4 C 23,3 km/h (4 Bft)
13.06.2012 19:00 15,1 C 64 % 1013,5 hPa 0,0 l/m 26,3 km/h (4 Bft) N-NW 335 0 min 0 W/m 8,3 C 8,5 C 26,3 km/h (4 Bft)
13.06.2012 19:15 15,0 C 65 % 1013,5 hPa 0,0 l/m 24,8 km/h (4 Bft) N-NW 340 0 min 0 W/m 8,5 C 8,6 C 24,8 km/h (4 Bft)
13.06.2012 19:30 14,5 C 65 % 1014,5 hPa 0,0 l/m 22,1 km/h (4 Bft) N 350 0 min 0 W/m 8,0 C 8,6 C 22,1 km/h (4 Bft)
13.06.2012 19:45 14,1 C 66 % 1014,5 hPa 0,0 l/m 20,8 km/h (4 Bft) N-NW 340 0 min 0 W/m 7,8 C 8,4 C 20,8 km/h (4 Bft)
13.06.2012 20:00 14,1 C 67 % 1014,5 hPa 0,0 l/m 22,1 km/h (4 Bft) N-NW 335 0 min 0 W/m 8,1 C 8,0 C 22,1 km/h (4 Bft)
13.06.2012 20:15 14,0 C 67 % 1014,5 hPa 0,0 l/m 26,2 km/h (4 Bft) N-NW 330 0 min 0 W/m 8,0 C 7,0 C 26,2 km/h (4 Bft)
13.06.2012 20:30 14,0 C 67 % 1014,5 hPa 0,0 l/m 20,0 km/h (4 Bft) N-NW 345 0 min 0 W/m 8,0 C 8,5 C 20,0 km/h (4 Bft)
13.06.2012 20:45 13,9 C 67 % 1014,5 hPa 0,0 l/m 21,1 km/h (4 Bft) NW 320 0 min 0 W/m 7,9 C 8,0 C 21,1 km/h (4 Bft)
13.06.2012 21:00 13,7 C 67 % 1014,5 hPa 0,0 l/m 21,5 km/h (4 Bft) N-NW 330 0 min 0 W/m 7,7 C 7,7 C 21,5 km/h (4 Bft)
13.06.2012 21:15 13,6 C 68 % 1014,5 hPa 0,0 l/m 17,8 km/h (3 Bft) N-NW 330 0 min 0 W/m 7,8 C 8,6 C 17,8 km/h (3 Bft)
13.06.2012 21:30 13,3 C 68 % 1014,5 hPa 0,0 l/m 21,6 km/h (4 Bft) NW 325 0 min 0 W/m 7,5 C 7,1 C 21,6 km/h (4 Bft)
13.06.2012 21:45 13,2 C 68 % 1015,5 hPa 0,0 l/m 20,2 km/h (4 Bft) N-NW 330 0 min 0 W/m 7,4 C 7,4 C 20,2 km/h (4 Bft)
13.06.2012 22:00 13,2 C 68 % 1015,5 hPa 0,0 l/m 18,9 km/h (3 Bft) N 350 0 min 0 W/m 7,4 C 7,7 C 18,9 km/h (3 Bft)
13.06.2012 22:15 13,2 C 68 % 1015,5 hPa 0,0 l/m 19,1 km/h (3 Bft) N-NW 335 0 min 0 W/m 7,4 C 7,7 C 19,1 km/h (3 Bft)
13.06.2012 22:30 13,2 C 69 % 1015,5 hPa 0,0 l/m 18,5 km/h (3 Bft) NW 325 0 min 0 W/m 7,6 C 7,9 C 18,5 km/h (3 Bft)
13.06.2012 22:45 13,2 C 69 % 1015,5 hPa 0,0 l/m 19,5 km/h (3 Bft) N-NW 340 0 min 0 W/m 7,6 C 7,6 C 19,5 km/h (3 Bft)
13.06.2012 23:00 13,0 C 70 % 1015,5 hPa 0,0 l/m 20,6 km/h (4 Bft) NW 320 0 min 0 W/m 7,7 C 7,0 C 20,6 km/h (4 Bft)
13.06.2012 23:15 13,0 C 68 % 1015,5 hPa 0,0 l/m 18,8 km/h (3 Bft) N-NW 340 0 min 0 W/m 7,2 C 7,5 C 18,8 km/h (3 Bft)
13.06.2012 23:30 12,8 C 68 % 1015,5 hPa 0,0 l/m 22,7 km/h (4 Bft) NW 325 0 min 0 W/m 7,0 C 6,2 C 22,7 km/h (4 Bft)
13.06.2012 23:45 12,8 C 68 % 1015,5 hPa 0,0 l/m 16,1 km/h (3 Bft) N-NW 335 0 min 0 W/m 7,0 C 8,1 C 16,1 km/h (3 Bft)
_ Min-Zeit 05:45 13:45 00:00 - 07:15 - - - - 05:45 07:00 07:15
Minimum _ 11,6 C 56 % 1007,5 hPa - 13,7 km/h (3 Bft) - - - - 6,9 C 5,3 C 13,7 km/h (3 Bft)
_ Max-Zeit 14:45 00:00 21:45 00:00 12:45 - - 00:00 00:00 14:30 15:15 12:45
Maximum _ 18,1 C 75 % 1015,5 hPa 0,0 l/m 28,5 km/h
NW (5 Bft)
- - 0 min 0 W/m 9,6 C 12,9 C 28,5 km/h
NW (5 Bft)
Durchschnitt _ 14,2 C 67 % 1011,2 hPa #0,0 l/m 21,3 km/h (4 Bft) N-NW - #0 min. 0 W/m 8,0 C 8,5 C 21,3 km/h (4 Bft)
copyright by Holger Just